createdAt,value
2019-02-22T00:15:50.945Z,12.37
2019-02-22T00:30:52.869Z,13.25
2019-02-22T00:45:51.825Z,12.18
2019-02-22T01:00:54.176Z,12.73
2019-02-22T01:15:51.086Z,12.85
2019-02-22T01:30:50.947Z,13.68
2019-02-22T01:45:50.852Z,12.60
2019-02-22T02:00:52.772Z,12.90
2019-02-22T02:15:53.161Z,13.20
2019-02-22T02:30:51.061Z,12.03
2019-02-22T02:45:51.064Z,11.90
2019-02-22T03:00:50.903Z,13.80
2019-02-22T03:15:51.360Z,14.03
2019-02-22T03:30:51.271Z,15.10
2019-02-22T03:45:51.101Z,12.95
2019-02-22T04:00:53.274Z,13.90
2019-02-22T04:15:51.457Z,14.85
2019-02-22T04:30:50.996Z,18.80
2019-02-22T04:45:50.951Z,21.50
2019-02-22T05:00:50.900Z,21.77
2019-02-22T05:15:50.717Z,21.73
2019-02-22T05:30:51.072Z,20.60
2019-02-22T05:45:50.988Z,21.57
2019-02-22T06:00:51.377Z,21.42
2019-02-22T06:15:50.559Z,23.55
2019-02-22T06:30:50.387Z,22.62
2019-02-22T06:45:51.428Z,23.77
2019-02-22T07:00:51.229Z,25.08
2019-02-22T07:15:51.429Z,27.27
2019-02-22T07:30:56.028Z,19.10
2019-02-22T07:45:57.425Z,16.25
2019-02-22T08:00:51.202Z,17.85
2019-02-22T08:15:50.450Z,14.35
2019-02-22T08:30:53.407Z,15.83
2019-02-22T09:00:51.289Z,12.80
2019-02-22T09:15:50.676Z,15.08
2019-02-22T09:30:50.379Z,11.38
2019-02-22T09:45:51.504Z,9.70
2019-02-22T10:00:53.800Z,10.82
2019-02-22T10:15:50.775Z,10.30
2019-02-22T10:30:50.614Z,11.90
2019-02-22T10:45:50.540Z,9.88
2019-02-22T11:00:50.541Z,9.55
2019-02-22T11:15:50.825Z,6.80
2019-02-22T11:30:51.340Z,7.92
2019-02-22T11:45:50.778Z,7.75
2019-02-22T12:00:50.688Z,6.83
2019-02-22T12:15:51.044Z,5.75
2019-02-22T12:30:50.952Z,7.20
2019-02-22T12:45:50.965Z,6.30
2019-02-22T13:00:52.801Z,9.33
2019-02-22T13:15:51.228Z,6.83
2019-02-22T13:30:51.160Z,7.90
2019-02-22T13:45:51.108Z,8.50
2019-02-22T14:00:53.065Z,8.40
2019-02-22T14:15:51.397Z,6.67
2019-02-22T14:30:53.386Z,5.85
2019-02-22T14:45:53.191Z,9.33
2019-02-22T15:00:51.179Z,7.55
2019-02-22T15:16:00.558Z,8.05
2019-02-22T15:30:50.601Z,6.90
2019-02-22T15:45:50.672Z,9.60
2019-02-22T16:00:51.323Z,9.00
2019-02-22T16:15:50.735Z,4.80
2019-02-22T16:30:50.699Z,5.20
2019-02-22T16:45:52.743Z,5.78
2019-02-22T17:00:51.783Z,5.40
2019-02-22T17:15:52.934Z,6.50
2019-02-22T17:30:50.928Z,5.40
2019-02-22T17:45:50.794Z,8.13
2019-02-22T18:00:52.878Z,9.18
2019-02-22T18:15:51.672Z,11.18
2019-02-22T18:30:51.663Z,11.55
2019-02-22T18:45:51.095Z,11.00
2019-02-22T19:00:51.053Z,12.90
2019-02-22T19:15:51.785Z,14.30
2019-02-22T19:30:52.025Z,15.45
2019-02-22T19:45:51.246Z,16.80
2019-02-22T20:00:51.311Z,16.52
2019-02-22T20:15:52.721Z,13.00
2019-02-22T20:30:50.620Z,13.93
2019-02-22T20:45:51.559Z,11.50
2019-02-22T21:00:50.762Z,9.80
2019-02-22T21:15:52.704Z,9.48
2019-02-22T21:30:50.625Z,8.50
2019-02-22T21:45:50.596Z,10.30
2019-02-22T22:00:50.503Z,8.60
2019-02-22T22:15:52.496Z,9.00
2019-02-22T22:30:51.337Z,6.45
2019-02-22T22:45:51.590Z,9.08
2019-02-22T23:00:58.828Z,3.47
2019-02-22T23:15:50.563Z,2.60
2019-02-22T23:30:50.496Z,5.87
2019-02-22T23:45:50.438Z,1.82
